sensor_id;sensor_type;location;lat;lon;timestamp;P1;durP1;ratioP1;P2;durP2;ratioP2
69931;SDS011;57243;52.064;5.116;2022-09-09T00:03:32;2.13;;;0.77;;
69931;SDS011;57243;52.064;5.116;2022-09-09T00:06:13;2.63;;;0.80;;
69931;SDS011;57243;52.064;5.116;2022-09-09T00:11:43;2.35;;;0.82;;
69931;SDS011;57243;52.064;5.116;2022-09-09T00:14:56;3.72;;;0.68;;
69931;SDS011;57243;52.064;5.116;2022-09-09T00:17:14;1.08;;;0.70;;
69931;SDS011;57243;52.064;5.116;2022-09-09T00:20:21;0.80;;;0.70;;
69931;SDS011;57243;52.064;5.116;2022-09-09T00:23:32;2.50;;;0.90;;
69931;SDS011;57243;52.064;5.116;2022-09-09T00:26:12;0.88;;;0.70;;
69931;SDS011;57243;52.064;5.116;2022-09-09T00:28:43;1.77;;;0.80;;
69931;SDS011;57243;52.064;5.116;2022-09-09T00:31:16;1.27;;;0.80;;
69931;SDS011;57243;52.064;5.116;2022-09-09T00:33:47;2.80;;;0.75;;
69931;SDS011;57243;52.064;5.116;2022-09-09T00:36:17;2.08;;;0.80;;
69931;SDS011;57243;52.064;5.116;2022-09-09T00:38:48;1.67;;;0.82;;
69931;SDS011;57243;52.064;5.116;2022-09-09T00:44:03;1.77;;;0.90;;
69931;SDS011;57243;52.064;5.116;2022-09-09T00:49:56;1.45;;;0.70;;
69931;SDS011;57243;52.064;5.116;2022-09-09T00:52:32;1.55;;;0.80;;
69931;SDS011;57243;52.064;5.116;2022-09-09T00:55:05;1.95;;;0.90;;
69931;SDS011;57243;52.064;5.116;2022-09-09T00:57:37;1.60;;;0.80;;
69931;SDS011;57243;52.064;5.116;2022-09-09T01:02:51;1.83;;;1.00;;
69931;SDS011;57243;52.064;5.116;2022-09-09T01:08:56;1.70;;;0.93;;
69931;SDS011;57243;52.064;5.116;2022-09-09T01:11:20;1.42;;;0.85;;
69931;SDS011;57243;52.064;5.116;2022-09-09T01:14:01;1.80;;;0.80;;
69931;SDS011;57243;52.064;5.116;2022-09-09T01:16:36;3.13;;;0.82;;
69931;SDS011;57243;52.064;5.116;2022-09-09T01:19:02;1.95;;;1.00;;
69931;SDS011;57243;52.064;5.116;2022-09-09T01:25:03;1.42;;;0.73;;
69931;SDS011;57243;52.064;5.116;2022-09-09T01:27:07;2.13;;;0.90;;
69931;SDS011;57243;52.064;5.116;2022-09-09T01:29:34;2.55;;;1.00;;
69931;SDS011;57243;52.064;5.116;2022-09-09T01:32:02;2.10;;;1.00;;
69931;SDS011;57243;52.064;5.116;2022-09-09T01:34:48;3.15;;;0.93;;
69931;SDS011;57243;52.064;5.116;2022-09-09T01:37:14;1.95;;;0.73;;
69931;SDS011;57243;52.064;5.116;2022-09-09T01:39:41;2.20;;;0.83;;
69931;SDS011;57243;52.064;5.116;2022-09-09T01:42:09;2.15;;;0.80;;
69931;SDS011;57243;52.064;5.116;2022-09-09T01:44:37;1.95;;;0.60;;
69931;SDS011;57243;52.064;5.116;2022-09-09T01:47:03;2.03;;;0.80;;
69931;SDS011;57243;52.064;5.116;2022-09-09T01:49:29;1.10;;;0.67;;
69931;SDS011;57243;52.064;5.116;2022-09-09T01:51:57;1.35;;;0.80;;
69931;SDS011;57243;52.064;5.116;2022-09-09T01:54:24;1.58;;;0.90;;
69931;SDS011;57243;52.064;5.116;2022-09-09T02:05:27;0.88;;;0.80;;
69931;SDS011;57243;52.064;5.116;2022-09-09T02:07:56;1.67;;;0.80;;
69931;SDS011;57243;52.064;5.116;2022-09-09T02:10:33;3.88;;;0.80;;
69931;SDS011;57243;52.064;5.116;2022-09-09T02:13:09;1.63;;;0.80;;
69931;SDS011;57243;52.064;5.116;2022-09-09T02:18:19;2.35;;;1.08;;
69931;SDS011;57243;52.064;5.116;2022-09-09T02:20:52;1.63;;;0.90;;
69931;SDS011;57243;52.064;5.116;2022-09-09T02:23:18;2.38;;;0.90;;
69931;SDS011;57243;52.064;5.116;2022-09-09T02:25:45;2.35;;;0.73;;
69931;SDS011;57243;52.064;5.116;2022-09-09T02:28:13;1.63;;;0.70;;
69931;SDS011;57243;52.064;5.116;2022-09-09T02:30:41;1.40;;;0.70;;
69931;SDS011;57243;52.064;5.116;2022-09-09T02:33:10;2.45;;;0.80;;
69931;SDS011;57243;52.064;5.116;2022-09-09T02:35:38;2.92;;;0.90;;
69931;SDS011;57243;52.064;5.116;2022-09-09T02:38:07;1.92;;;1.00;;
69931;SDS011;57243;52.064;5.116;2022-09-09T02:40:35;1.70;;;0.80;;
69931;SDS011;57243;52.064;5.116;2022-09-09T02:43:01;1.30;;;0.60;;
69931;SDS011;57243;52.064;5.116;2022-09-09T02:45:29;1.70;;;0.85;;
69931;SDS011;57243;52.064;5.116;2022-09-09T02:51:15;1.98;;;0.70;;
69931;SDS011;57243;52.064;5.116;2022-09-09T02:53:44;2.20;;;1.10;;
69931;SDS011;57243;52.064;5.116;2022-09-09T02:56:18;2.17;;;0.70;;
69931;SDS011;57243;52.064;5.116;2022-09-09T02:58:48;2.70;;;0.93;;
69931;SDS011;57243;52.064;5.116;2022-09-09T03:01:16;2.42;;;0.80;;
69931;SDS011;57243;52.064;5.116;2022-09-09T03:03:42;1.30;;;1.00;;
69931;SDS011;57243;52.064;5.116;2022-09-09T03:06:09;2.45;;;1.00;;
69931;SDS011;57243;52.064;5.116;2022-09-09T03:08:36;2.97;;;0.80;;
69931;SDS011;57243;52.064;5.116;2022-09-09T03:11:02;4.47;;;1.07;;
69931;SDS011;57243;52.064;5.116;2022-09-09T03:13:28;1.95;;;1.02;;
69931;SDS011;57243;52.064;5.116;2022-09-09T03:15:54;1.93;;;0.87;;
69931;SDS011;57243;52.064;5.116;2022-09-09T03:18:19;2.20;;;0.80;;
69931;SDS011;57243;52.064;5.116;2022-09-09T03:20:45;1.97;;;0.70;;
69931;SDS011;57243;52.064;5.116;2022-09-09T03:23:13;4.03;;;1.00;;
69931;SDS011;57243;52.064;5.116;2022-09-09T03:25:39;2.73;;;0.70;;
69931;SDS011;57243;52.064;5.116;2022-09-09T03:28:04;2.92;;;1.05;;
69931;SDS011;57243;52.064;5.116;2022-09-09T03:30:30;1.63;;;0.83;;
69931;SDS011;57243;52.064;5.116;2022-09-09T03:32:55;3.00;;;0.90;;
69931;SDS011;57243;52.064;5.116;2022-09-09T03:35:21;2.13;;;0.88;;
69931;SDS011;57243;52.064;5.116;2022-09-09T03:37:47;4.82;;;1.00;;
69931;SDS011;57243;52.064;5.116;2022-09-09T03:40:13;1.47;;;0.70;;
69931;SDS011;57243;52.064;5.116;2022-09-09T03:42:39;1.65;;;0.80;;
69931;SDS011;57243;52.064;5.116;2022-09-09T03:45:05;2.47;;;0.90;;
69931;SDS011;57243;52.064;5.116;2022-09-09T03:47:34;2.45;;;0.90;;
69931;SDS011;57243;52.064;5.116;2022-09-09T03:49:59;2.65;;;0.93;;
69931;SDS011;57243;52.064;5.116;2022-09-09T03:52:25;3.87;;;0.90;;
69931;SDS011;57243;52.064;5.116;2022-09-09T03:54:52;2.13;;;0.70;;
69931;SDS011;57243;52.064;5.116;2022-09-09T03:57:19;4.32;;;0.95;;
69931;SDS011;57243;52.064;5.116;2022-09-09T03:59:45;2.13;;;0.88;;
69931;SDS011;57243;52.064;5.116;2022-09-09T04:02:10;2.10;;;1.00;;
69931;SDS011;57243;52.064;5.116;2022-09-09T04:04:36;2.43;;;0.90;;
69931;SDS011;57243;52.064;5.116;2022-09-09T04:07:02;3.00;;;0.93;;
69931;SDS011;57243;52.064;5.116;2022-09-09T04:09:27;1.70;;;1.10;;
69931;SDS011;57243;52.064;5.116;2022-09-09T04:11:53;2.08;;;0.80;;
69931;SDS011;57243;52.064;5.116;2022-09-09T04:14:19;1.57;;;1.00;;
69931;SDS011;57243;52.064;5.116;2022-09-09T04:16:44;2.85;;;1.08;;
69931;SDS011;57243;52.064;5.116;2022-09-09T04:19:11;2.73;;;0.80;;
69931;SDS011;57243;52.064;5.116;2022-09-09T04:21:38;1.52;;;0.90;;
69931;SDS011;57243;52.064;5.116;2022-09-09T04:24:05;3.13;;;0.82;;
69931;SDS011;57243;52.064;5.116;2022-09-09T04:26:31;2.30;;;0.88;;
69931;SDS011;57243;52.064;5.116;2022-09-09T04:28:57;3.17;;;0.98;;
69931;SDS011;57243;52.064;5.116;2022-09-09T04:31:23;4.10;;;1.00;;
69931;SDS011;57243;52.064;5.116;2022-09-09T04:33:49;2.47;;;0.95;;
69931;SDS011;57243;52.064;5.116;2022-09-09T04:36:15;3.33;;;1.10;;
69931;SDS011;57243;52.064;5.116;2022-09-09T04:38:43;2.30;;;0.95;;
69931;SDS011;57243;52.064;5.116;2022-09-09T04:41:09;2.50;;;1.10;;
69931;SDS011;57243;52.064;5.116;2022-09-09T04:43:36;1.55;;;0.85;;
69931;SDS011;57243;52.064;5.116;2022-09-09T04:46:02;3.13;;;0.82;;
69931;SDS011;57243;52.064;5.116;2022-09-09T04:48:28;3.00;;;0.90;;
69931;SDS011;57243;52.064;5.116;2022-09-09T04:50:58;2.40;;;1.07;;
69931;SDS011;57243;52.064;5.116;2022-09-09T04:53:26;3.50;;;1.00;;
69931;SDS011;57243;52.064;5.116;2022-09-09T04:55:52;1.58;;;0.80;;
69931;SDS011;57243;52.064;5.116;2022-09-09T04:58:26;2.08;;;0.90;;
69931;SDS011;57243;52.064;5.116;2022-09-09T05:00:51;2.37;;;0.90;;
69931;SDS011;57243;52.064;5.116;2022-09-09T05:03:17;3.33;;;1.02;;
69931;SDS011;57243;52.064;5.116;2022-09-09T05:05:43;2.67;;;0.90;;
69931;SDS011;57243;52.064;5.116;2022-09-09T05:08:10;3.58;;;1.00;;
69931;SDS011;57243;52.064;5.116;2022-09-09T05:10:39;2.83;;;1.00;;
69931;SDS011;57243;52.064;5.116;2022-09-09T05:13:06;2.47;;;0.80;;
69931;SDS011;57243;52.064;5.116;2022-09-09T05:15:32;2.70;;;0.93;;
69931;SDS011;57243;52.064;5.116;2022-09-09T05:17:58;2.87;;;1.00;;
69931;SDS011;57243;52.064;5.116;2022-09-09T05:20:25;2.03;;;0.90;;
69931;SDS011;57243;52.064;5.116;2022-09-09T05:22:52;2.75;;;0.95;;
69931;SDS011;57243;52.064;5.116;2022-09-09T05:25:19;2.67;;;0.82;;
69931;SDS011;57243;52.064;5.116;2022-09-09T05:27:45;2.65;;;1.00;;
69931;SDS011;57243;52.064;5.116;2022-09-09T05:30:10;2.75;;;1.02;;
69931;SDS011;57243;52.064;5.116;2022-09-09T05:32:36;2.17;;;0.90;;
69931;SDS011;57243;52.064;5.116;2022-09-09T05:35:02;2.25;;;1.00;;
69931;SDS011;57243;52.064;5.116;2022-09-09T05:37:30;1.15;;;0.70;;
69931;SDS011;57243;52.064;5.116;2022-09-09T05:39:56;1.83;;;0.73;;
69931;SDS011;57243;52.064;5.116;2022-09-09T05:42:22;2.00;;;0.80;;
69931;SDS011;57243;52.064;5.116;2022-09-09T05:44:48;1.92;;;0.90;;
69931;SDS011;57243;52.064;5.116;2022-09-09T05:47:15;2.35;;;0.80;;
69931;SDS011;57243;52.064;5.116;2022-09-09T05:49:42;4.13;;;0.90;;
69931;SDS011;57243;52.064;5.116;2022-09-09T05:52:07;4.07;;;0.90;;
69931;SDS011;57243;52.064;5.116;2022-09-09T05:54:34;2.28;;;0.95;;
69931;SDS011;57243;52.064;5.116;2022-09-09T05:57:01;1.25;;;0.80;;
69931;SDS011;57243;52.064;5.116;2022-09-09T05:59:27;1.60;;;0.90;;
69931;SDS011;57243;52.064;5.116;2022-09-09T06:01:53;2.40;;;0.80;;
69931;SDS011;57243;52.064;5.116;2022-09-09T06:04:19;3.93;;;1.07;;
69931;SDS011;57243;52.064;5.116;2022-09-09T06:06:49;4.82;;;1.00;;
69931;SDS011;57243;52.064;5.116;2022-09-09T06:09:14;3.78;;;0.90;;
69931;SDS011;57243;52.064;5.116;2022-09-09T06:11:41;6.73;;;1.10;;
69931;SDS011;57243;52.064;5.116;2022-09-09T06:14:07;5.32;;;1.00;;
69931;SDS011;57243;52.064;5.116;2022-09-09T06:16:33;5.68;;;0.90;;
69931;SDS011;57243;52.064;5.116;2022-09-09T06:19:00;3.60;;;1.10;;
69931;SDS011;57243;52.064;5.116;2022-09-09T06:21:28;5.47;;;1.13;;
69931;SDS011;57243;52.064;5.116;2022-09-09T06:23:56;5.40;;;1.17;;
69931;SDS011;57243;52.064;5.116;2022-09-09T06:26:23;4.18;;;1.38;;
69931;SDS011;57243;52.064;5.116;2022-09-09T06:28:51;3.88;;;1.20;;
69931;SDS011;57243;52.064;5.116;2022-09-09T06:31:19;6.32;;;1.20;;
69931;SDS011;57243;52.064;5.116;2022-09-09T06:33:46;4.20;;;1.30;;
69931;SDS011;57243;52.064;5.116;2022-09-09T06:36:15;6.20;;;1.20;;
69931;SDS011;57243;52.064;5.116;2022-09-09T06:38:45;3.97;;;1.05;;
69931;SDS011;57243;52.064;5.116;2022-09-09T06:41:12;5.43;;;1.27;;
69931;SDS011;57243;52.064;5.116;2022-09-09T06:43:39;5.03;;;1.20;;
69931;SDS011;57243;52.064;5.116;2022-09-09T06:46:06;3.60;;;1.30;;
69931;SDS011;57243;52.064;5.116;2022-09-09T06:48:34;3.70;;;1.13;;
69931;SDS011;57243;52.064;5.116;2022-09-09T06:51:05;7.55;;;1.20;;
69931;SDS011;57243;52.064;5.116;2022-09-09T06:53:39;9.55;;;1.15;;
69931;SDS011;57243;52.064;5.116;2022-09-09T06:56:24;6.90;;;1.88;;
69931;SDS011;57243;52.064;5.116;2022-09-09T06:58:55;9.07;;;1.67;;
69931;SDS011;57243;52.064;5.116;2022-09-09T07:01:27;7.57;;;1.30;;
69931;SDS011;57243;52.064;5.116;2022-09-09T07:03:55;5.40;;;1.50;;
69931;SDS011;57243;52.064;5.116;2022-09-09T07:06:25;13.55;;;1.77;;
69931;SDS011;57243;52.064;5.116;2022-09-09T07:08:53;10.75;;;1.20;;
69931;SDS011;57243;52.064;5.116;2022-09-09T07:11:23;5.28;;;1.55;;
69931;SDS011;57243;52.064;5.116;2022-09-09T07:13:52;12.35;;;1.20;;
69931;SDS011;57243;52.064;5.116;2022-09-09T07:16:18;10.23;;;1.30;;
69931;SDS011;57243;52.064;5.116;2022-09-09T07:18:56;5.88;;;1.27;;
69931;SDS011;57243;52.064;5.116;2022-09-09T07:21:22;4.15;;;1.20;;
69931;SDS011;57243;52.064;5.116;2022-09-09T07:23:51;5.95;;;1.40;;
69931;SDS011;57243;52.064;5.116;2022-09-09T07:26:17;8.20;;;1.70;;
69931;SDS011;57243;52.064;5.116;2022-09-09T07:28:45;4.55;;;1.00;;
69931;SDS011;57243;52.064;5.116;2022-09-09T07:31:15;6.85;;;1.30;;
69931;SDS011;57243;52.064;5.116;2022-09-09T07:33:45;8.65;;;1.27;;
69931;SDS011;57243;52.064;5.116;2022-09-09T07:36:13;6.78;;;1.38;;
69931;SDS011;57243;52.064;5.116;2022-09-09T07:38:40;5.03;;;1.30;;
69931;SDS011;57243;52.064;5.116;2022-09-09T07:41:08;5.05;;;1.50;;
69931;SDS011;57243;52.064;5.116;2022-09-09T07:43:39;6.03;;;1.33;;
69931;SDS011;57243;52.064;5.116;2022-09-09T07:46:06;6.53;;;1.35;;
69931;SDS011;57243;52.064;5.116;2022-09-09T07:48:33;6.20;;;1.40;;
69931;SDS011;57243;52.064;5.116;2022-09-09T07:51:03;4.07;;;1.17;;
69931;SDS011;57243;52.064;5.116;2022-09-09T07:53:33;5.80;;;1.65;;
69931;SDS011;57243;52.064;5.116;2022-09-09T07:56:08;5.60;;;1.13;;
69931;SDS011;57243;52.064;5.116;2022-09-09T07:58:36;8.48;;;2.13;;
69931;SDS011;57243;52.064;5.116;2022-09-09T08:01:46;6.32;;;1.77;;
69931;SDS011;57243;52.064;5.116;2022-09-09T08:03:55;8.15;;;1.50;;
69931;SDS011;57243;52.064;5.116;2022-09-09T08:06:24;7.05;;;1.42;;
69931;SDS011;57243;52.064;5.116;2022-09-09T08:08:51;5.68;;;1.60;;
69931;SDS011;57243;52.064;5.116;2022-09-09T08:11:19;5.88;;;1.52;;
69931;SDS011;57243;52.064;5.116;2022-09-09T08:13:46;4.45;;;1.45;;
69931;SDS011;57243;52.064;5.116;2022-09-09T08:16:13;6.05;;;1.70;;
69931;SDS011;57243;52.064;5.116;2022-09-09T08:18:41;7.63;;;1.45;;
69931;SDS011;57243;52.064;5.116;2022-09-09T08:21:11;11.53;;;1.37;;
69931;SDS011;57243;52.064;5.116;2022-09-09T08:23:41;5.38;;;1.50;;
69931;SDS011;57243;52.064;5.116;2022-09-09T08:28:38;5.45;;;1.38;;
69931;SDS011;57243;52.064;5.116;2022-09-09T08:31:09;3.67;;;1.20;;
69931;SDS011;57243;52.064;5.116;2022-09-09T08:33:37;6.72;;;1.63;;
69931;SDS011;57243;52.064;5.116;2022-09-09T08:36:03;5.53;;;1.30;;
69931;SDS011;57243;52.064;5.116;2022-09-09T08:38:30;5.53;;;1.40;;
69931;SDS011;57243;52.064;5.116;2022-09-09T08:41:06;3.88;;;1.23;;
69931;SDS011;57243;52.064;5.116;2022-09-09T08:43:40;5.80;;;1.38;;
69931;SDS011;57243;52.064;5.116;2022-09-09T08:46:12;4.57;;;1.13;;
69931;SDS011;57243;52.064;5.116;2022-09-09T08:51:10;7.03;;;1.40;;
69931;SDS011;57243;52.064;5.116;2022-09-09T08:53:39;8.05;;;1.63;;
69931;SDS011;57243;52.064;5.116;2022-09-09T08:56:24;3.90;;;1.45;;
69931;SDS011;57243;52.064;5.116;2022-09-09T08:58:52;5.10;;;1.25;;
69931;SDS011;57243;52.064;5.116;2022-09-09T09:12:24;5.18;;;1.58;;
69931;SDS011;57243;52.064;5.116;2022-09-09T09:14:53;5.07;;;1.55;;
69931;SDS011;57243;52.064;5.116;2022-09-09T09:17:21;6.97;;;1.83;;
69931;SDS011;57243;52.064;5.116;2022-09-09T09:19:50;5.95;;;1.63;;
69931;SDS011;57243;52.064;5.116;2022-09-09T09:22:19;5.10;;;1.40;;
69931;SDS011;57243;52.064;5.116;2022-09-09T09:30:20;5.93;;;1.35;;
69931;SDS011;57243;52.064;5.116;2022-09-09T09:35:40;6.30;;;1.58;;
69931;SDS011;57243;52.064;5.116;2022-09-09T09:38:16;5.30;;;1.37;;
69931;SDS011;57243;52.064;5.116;2022-09-09T09:40:54;4.85;;;1.45;;
69931;SDS011;57243;52.064;5.116;2022-09-09T09:43:36;6.47;;;1.40;;
69931;SDS011;57243;52.064;5.116;2022-09-09T09:46:05;5.03;;;1.42;;
69931;SDS011;57243;52.064;5.116;2022-09-09T09:48:43;5.18;;;1.13;;
69931;SDS011;57243;52.064;5.116;2022-09-09T09:51:10;5.03;;;1.33;;
69931;SDS011;57243;52.064;5.116;2022-09-09T09:53:41;5.40;;;1.50;;
69931;SDS011;57243;52.064;5.116;2022-09-09T09:56:11;3.60;;;1.20;;
69931;SDS011;57243;52.064;5.116;2022-09-09T10:01:33;5.07;;;1.25;;
69931;SDS011;57243;52.064;5.116;2022-09-09T10:04:01;5.07;;;1.10;;
69931;SDS011;57243;52.064;5.116;2022-09-09T10:06:43;5.00;;;1.20;;
69931;SDS011;57243;52.064;5.116;2022-09-09T10:17:34;8.25;;;1.45;;
69931;SDS011;57243;52.064;5.116;2022-09-09T10:20:18;4.97;;;1.30;;
69931;SDS011;57243;52.064;5.116;2022-09-09T10:23:56;6.30;;;1.23;;
69931;SDS011;57243;52.064;5.116;2022-09-09T10:25:59;5.47;;;1.43;;
69931;SDS011;57243;52.064;5.116;2022-09-09T10:31:25;8.07;;;1.70;;
69931;SDS011;57243;52.064;5.116;2022-09-09T10:36:49;6.28;;;1.30;;
69931;SDS011;57243;52.064;5.116;2022-09-09T10:39:35;5.60;;;1.40;;
69931;SDS011;57243;52.064;5.116;2022-09-09T10:42:06;6.47;;;1.45;;
69931;SDS011;57243;52.064;5.116;2022-09-09T10:50:43;4.57;;;1.15;;
69931;SDS011;57243;52.064;5.116;2022-09-09T10:53:27;3.93;;;1.10;;
69931;SDS011;57243;52.064;5.116;2022-09-09T10:56:02;6.18;;;1.42;;
69931;SDS011;57243;52.064;5.116;2022-09-09T10:58:35;7.18;;;1.30;;
69931;SDS011;57243;52.064;5.116;2022-09-09T11:01:15;4.72;;;1.20;;
69931;SDS011;57243;52.064;5.116;2022-09-09T11:03:49;4.55;;;1.38;;
69931;SDS011;57243;52.064;5.116;2022-09-09T11:06:21;5.70;;;1.30;;
69931;SDS011;57243;52.064;5.116;2022-09-09T11:08:53;7.07;;;1.85;;
69931;SDS011;57243;52.064;5.116;2022-09-09T11:11:27;5.93;;;1.40;;
69931;SDS011;57243;52.064;5.116;2022-09-09T11:14:12;4.10;;;1.20;;
69931;SDS011;57243;52.064;5.116;2022-09-09T11:22:04;5.60;;;1.20;;
69931;SDS011;57243;52.064;5.116;2022-09-09T11:30:22;6.95;;;1.35;;
69931;SDS011;57243;52.064;5.116;2022-09-09T11:38:27;3.00;;;1.13;;
69931;SDS011;57243;52.064;5.116;2022-09-09T11:41:04;4.50;;;1.15;;
69931;SDS011;57243;52.064;5.116;2022-09-09T11:46:12;4.07;;;1.17;;
69931;SDS011;57243;52.064;5.116;2022-09-09T11:48:57;5.57;;;1.30;;
69931;SDS011;57243;52.064;5.116;2022-09-09T11:51:26;6.30;;;1.40;;
69931;SDS011;57243;52.064;5.116;2022-09-09T11:53:58;4.47;;;1.33;;
69931;SDS011;57243;52.064;5.116;2022-09-09T11:58:57;2.63;;;1.10;;
69931;SDS011;57243;52.064;5.116;2022-09-09T12:01:43;4.22;;;1.30;;
69931;SDS011;57243;52.064;5.116;2022-09-09T12:07:32;7.78;;;1.27;;
69931;SDS011;57243;52.064;5.116;2022-09-09T12:09:56;5.50;;;1.38;;
69931;SDS011;57243;52.064;5.116;2022-09-09T12:15:01;5.10;;;1.40;;
69931;SDS011;57243;52.064;5.116;2022-09-09T12:17:46;5.25;;;1.30;;
69931;SDS011;57243;52.064;5.116;2022-09-09T12:20:17;4.18;;;1.10;;
69931;SDS011;57243;52.064;5.116;2022-09-09T12:28:22;4.80;;;1.58;;
69931;SDS011;57243;52.064;5.116;2022-09-09T12:34:02;5.28;;;1.50;;
69931;SDS011;57243;52.064;5.116;2022-09-09T12:36:38;4.95;;;1.25;;
69931;SDS011;57243;52.064;5.116;2022-09-09T12:39:10;5.43;;;1.30;;
69931;SDS011;57243;52.064;5.116;2022-09-09T12:41:51;3.80;;;1.30;;
69931;SDS011;57243;52.064;5.116;2022-09-09T12:44:21;4.68;;;1.70;;
69931;SDS011;57243;52.064;5.116;2022-09-09T12:46:53;4.57;;;1.40;;
69931;SDS011;57243;52.064;5.116;2022-09-09T12:49:31;4.47;;;1.42;;
69931;SDS011;57243;52.064;5.116;2022-09-09T12:52:07;4.77;;;1.40;;
69931;SDS011;57243;52.064;5.116;2022-09-09T12:54:42;5.68;;;1.63;;
69931;SDS011;57243;52.064;5.116;2022-09-09T12:57:14;4.55;;;1.60;;
69931;SDS011;57243;52.064;5.116;2022-09-09T12:59:41;4.93;;;1.70;;
69931;SDS011;57243;52.064;5.116;2022-09-09T13:02:44;5.05;;;1.25;;
69931;SDS011;57243;52.064;5.116;2022-09-09T13:05:13;5.97;;;1.50;;
69931;SDS011;57243;52.064;5.116;2022-09-09T13:07:41;5.57;;;1.20;;
69931;SDS011;57243;52.064;5.116;2022-09-09T13:10:10;5.40;;;1.30;;
69931;SDS011;57243;52.064;5.116;2022-09-09T13:12:37;6.47;;;1.42;;
69931;SDS011;57243;52.064;5.116;2022-09-09T13:15:04;4.32;;;1.23;;
69931;SDS011;57243;52.064;5.116;2022-09-09T13:17:35;5.73;;;1.53;;
69931;SDS011;57243;52.064;5.116;2022-09-09T13:20:01;7.60;;;1.58;;
69931;SDS011;57243;52.064;5.116;2022-09-09T13:27:36;5.28;;;1.25;;
69931;SDS011;57243;52.064;5.116;2022-09-09T13:30:20;6.45;;;1.83;;
69931;SDS011;57243;52.064;5.116;2022-09-09T13:32:47;5.35;;;1.30;;
69931;SDS011;57243;52.064;5.116;2022-09-09T13:35:24;3.33;;;1.45;;
69931;SDS011;57243;52.064;5.116;2022-09-09T13:37:50;5.87;;;1.47;;
69931;SDS011;57243;52.064;5.116;2022-09-09T13:40:22;5.57;;;1.55;;
69931;SDS011;57243;52.064;5.116;2022-09-09T13:42:53;5.55;;;1.65;;
69931;SDS011;57243;52.064;5.116;2022-09-09T13:45:22;3.87;;;1.50;;
69931;SDS011;57243;52.064;5.116;2022-09-09T13:47:51;5.45;;;1.25;;
69931;SDS011;57243;52.064;5.116;2022-09-09T13:52:51;5.60;;;1.30;;
69931;SDS011;57243;52.064;5.116;2022-09-09T13:55:19;4.18;;;1.40;;
69931;SDS011;57243;52.064;5.116;2022-09-09T13:58:04;4.90;;;1.40;;
69931;SDS011;57243;52.064;5.116;2022-09-09T14:00:31;6.20;;;1.80;;
69931;SDS011;57243;52.064;5.116;2022-09-09T14:02:58;6.07;;;1.70;;
69931;SDS011;57243;52.064;5.116;2022-09-09T14:05:27;5.07;;;1.73;;
69931;SDS011;57243;52.064;5.116;2022-09-09T14:07:53;4.55;;;1.50;;
69931;SDS011;57243;52.064;5.116;2022-09-09T14:10:18;5.47;;;1.43;;
69931;SDS011;57243;52.064;5.116;2022-09-09T14:12:44;5.43;;;1.70;;
69931;SDS011;57243;52.064;5.116;2022-09-09T14:15:11;4.43;;;1.63;;
69931;SDS011;57243;52.064;5.116;2022-09-09T14:17:37;6.73;;;2.23;;
69931;SDS011;57243;52.064;5.116;2022-09-09T14:20:03;5.78;;;1.60;;
69931;SDS011;57243;52.064;5.116;2022-09-09T14:22:36;4.57;;;1.45;;
69931;SDS011;57243;52.064;5.116;2022-09-09T14:25:04;7.65;;;1.80;;
69931;SDS011;57243;52.064;5.116;2022-09-09T14:27:31;5.82;;;1.95;;
69931;SDS011;57243;52.064;5.116;2022-09-09T14:29:57;5.28;;;1.90;;
69931;SDS011;57243;52.064;5.116;2022-09-09T14:32:23;4.40;;;2.20;;
69931;SDS011;57243;52.064;5.116;2022-09-09T14:34:48;5.57;;;1.80;;
69931;SDS011;57243;52.064;5.116;2022-09-09T14:37:17;4.32;;;1.58;;
69931;SDS011;57243;52.064;5.116;2022-09-09T14:39:43;4.00;;;1.60;;
69931;SDS011;57243;52.064;5.116;2022-09-09T14:42:10;3.05;;;1.40;;
69931;SDS011;57243;52.064;5.116;2022-09-09T14:44:36;2.83;;;1.27;;
69931;SDS011;57243;52.064;5.116;2022-09-09T14:47:05;3.30;;;1.13;;
69931;SDS011;57243;52.064;5.116;2022-09-09T14:49:33;3.53;;;1.20;;
69931;SDS011;57243;52.064;5.116;2022-09-09T14:51:59;2.55;;;1.10;;
69931;SDS011;57243;52.064;5.116;2022-09-09T14:54:24;3.97;;;1.10;;
69931;SDS011;57243;52.064;5.116;2022-09-09T14:56:50;3.17;;;1.15;;
69931;SDS011;57243;52.064;5.116;2022-09-09T14:59:16;3.20;;;1.30;;
69931;SDS011;57243;52.064;5.116;2022-09-09T15:01:42;4.30;;;1.67;;
69931;SDS011;57243;52.064;5.116;2022-09-09T15:04:10;2.30;;;1.10;;
69931;SDS011;57243;52.064;5.116;2022-09-09T15:06:37;3.00;;;1.10;;
69931;SDS011;57243;52.064;5.116;2022-09-09T15:09:04;2.47;;;1.10;;
69931;SDS011;57243;52.064;5.116;2022-09-09T15:11:30;2.85;;;1.20;;
69931;SDS011;57243;52.064;5.116;2022-09-09T15:14:02;4.22;;;1.05;;
69931;SDS011;57243;52.064;5.116;2022-09-09T15:16:28;5.03;;;1.10;;
69931;SDS011;57243;52.064;5.116;2022-09-09T15:18:56;2.00;;;1.10;;
69931;SDS011;57243;52.064;5.116;2022-09-09T15:21:24;2.33;;;1.20;;
69931;SDS011;57243;52.064;5.116;2022-09-09T15:23:57;2.33;;;1.17;;
69931;SDS011;57243;52.064;5.116;2022-09-09T15:26:24;2.28;;;0.90;;
69931;SDS011;57243;52.064;5.116;2022-09-09T15:28:50;3.28;;;1.00;;
69931;SDS011;57243;52.064;5.116;2022-09-09T15:33:50;3.75;;;1.40;;
69931;SDS011;57243;52.064;5.116;2022-09-09T15:36:18;2.28;;;1.00;;
69931;SDS011;57243;52.064;5.116;2022-09-09T15:38:45;2.65;;;1.00;;
69931;SDS011;57243;52.064;5.116;2022-09-09T15:41:11;1.70;;;0.90;;
69931;SDS011;57243;52.064;5.116;2022-09-09T15:43:38;2.90;;;1.48;;
69931;SDS011;57243;52.064;5.116;2022-09-09T15:46:21;3.03;;;1.52;;
69931;SDS011;57243;52.064;5.116;2022-09-09T15:48:51;3.72;;;1.25;;
69931;SDS011;57243;52.064;5.116;2022-09-09T15:51:17;4.30;;;1.20;;
69931;SDS011;57243;52.064;5.116;2022-09-09T15:53:43;4.22;;;1.40;;
69931;SDS011;57243;52.064;5.116;2022-09-09T15:56:10;3.35;;;1.50;;
69931;SDS011;57243;52.064;5.116;2022-09-09T15:58:35;3.83;;;1.42;;
69931;SDS011;57243;52.064;5.116;2022-09-09T16:01:02;2.73;;;1.20;;
69931;SDS011;57243;52.064;5.116;2022-09-09T16:03:29;2.22;;;0.90;;
69931;SDS011;57243;52.064;5.116;2022-09-09T16:05:58;2.42;;;1.15;;
69931;SDS011;57243;52.064;5.116;2022-09-09T16:08:24;3.08;;;1.40;;
69931;SDS011;57243;52.064;5.116;2022-09-09T16:10:56;4.27;;;1.10;;
69931;SDS011;57243;52.064;5.116;2022-09-09T16:13:21;6.18;;;1.23;;
69931;SDS011;57243;52.064;5.116;2022-09-09T16:15:53;5.03;;;1.30;;
69931;SDS011;57243;52.064;5.116;2022-09-09T16:18:19;3.08;;;1.20;;
69931;SDS011;57243;52.064;5.116;2022-09-09T16:20:52;4.90;;;1.20;;
69931;SDS011;57243;52.064;5.116;2022-09-09T16:23:21;5.40;;;1.20;;
69931;SDS011;57243;52.064;5.116;2022-09-09T16:25:55;4.13;;;1.10;;
69931;SDS011;57243;52.064;5.116;2022-09-09T16:28:21;6.07;;;1.20;;
69931;SDS011;57243;52.064;5.116;2022-09-09T16:30:47;6.50;;;1.17;;
69931;SDS011;57243;52.064;5.116;2022-09-09T16:33:13;4.10;;;1.08;;
69931;SDS011;57243;52.064;5.116;2022-09-09T16:35:42;5.28;;;1.27;;
69931;SDS011;57243;52.064;5.116;2022-09-09T16:38:08;7.20;;;1.50;;
69931;SDS011;57243;52.064;5.116;2022-09-09T16:40:34;7.28;;;1.40;;
69931;SDS011;57243;52.064;5.116;2022-09-09T16:43:00;5.03;;;1.40;;
69931;SDS011;57243;52.064;5.116;2022-09-09T16:45:26;6.57;;;1.45;;
69931;SDS011;57243;52.064;5.116;2022-09-09T16:47:52;4.97;;;1.67;;
69931;SDS011;57243;52.064;5.116;2022-09-09T16:50:18;4.03;;;1.50;;
69931;SDS011;57243;52.064;5.116;2022-09-09T16:52:43;7.40;;;1.60;;
69931;SDS011;57243;52.064;5.116;2022-09-09T16:55:09;3.47;;;1.33;;
69931;SDS011;57243;52.064;5.116;2022-09-09T16:57:34;5.03;;;1.87;;
69931;SDS011;57243;52.064;5.116;2022-09-09T17:00:00;6.30;;;1.50;;
69931;SDS011;57243;52.064;5.116;2022-09-09T17:02:26;5.45;;;1.65;;
69931;SDS011;57243;52.064;5.116;2022-09-09T17:04:53;5.65;;;1.63;;
69931;SDS011;57243;52.064;5.116;2022-09-09T17:07:19;5.77;;;1.70;;
69931;SDS011;57243;52.064;5.116;2022-09-09T17:09:45;5.22;;;1.50;;
69931;SDS011;57243;52.064;5.116;2022-09-09T17:12:11;7.43;;;1.58;;